createdAt,value
2022-11-17T00:00:19.818Z,2.30
2022-11-17T00:01:19.806Z,2.40
2022-11-17T00:02:19.883Z,3.00
2022-11-17T00:03:19.794Z,2.60
2022-11-17T00:04:19.775Z,2.90
2022-11-17T00:05:19.872Z,2.40
2022-11-17T00:06:19.752Z,2.60
2022-11-17T00:07:19.832Z,3.00
2022-11-17T00:08:19.742Z,2.80
2022-11-17T00:09:19.715Z,2.80
2022-11-17T00:10:19.722Z,2.80
2022-11-17T00:11:19.696Z,3.20
2022-11-17T00:12:22.626Z,2.70
2022-11-17T00:13:19.682Z,3.30
2022-11-17T00:14:19.678Z,3.00
2022-11-17T00:15:19.667Z,3.20
2022-11-17T00:16:19.644Z,3.20
2022-11-17T00:17:19.637Z,3.50
2022-11-17T00:18:19.621Z,3.20
2022-11-17T00:19:19.618Z,4.40
2022-11-17T00:20:19.611Z,3.60
2022-11-17T00:21:19.721Z,3.50
2022-11-17T00:22:19.601Z,3.70
2022-11-17T00:23:19.564Z,3.40
2022-11-17T00:24:19.572Z,3.40
2022-11-17T00:25:19.543Z,3.80
2022-11-17T00:26:19.534Z,3.70
2022-11-17T00:27:19.519Z,4.00
2022-11-17T00:28:19.519Z,4.40
2022-11-17T00:29:19.513Z,4.30
2022-11-17T00:30:19.504Z,3.80
2022-11-17T00:31:19.476Z,4.40
2022-11-17T00:32:19.484Z,4.40
2022-11-17T00:33:19.454Z,4.30
2022-11-17T00:34:19.447Z,4.20
2022-11-17T00:35:19.434Z,4.50
2022-11-17T00:36:19.446Z,4.70
2022-11-17T00:37:19.440Z,4.60
2022-11-17T00:38:19.404Z,4.60
2022-11-17T00:39:19.390Z,4.50
2022-11-17T00:40:19.382Z,4.40
2022-11-17T00:41:19.381Z,4.80
2022-11-17T00:42:19.368Z,4.30
2022-11-17T00:43:19.346Z,4.50
2022-11-17T00:44:19.354Z,5.00
2022-11-17T00:45:19.334Z,5.00
2022-11-17T00:46:19.337Z,5.00
2022-11-17T00:47:19.305Z,5.10
2022-11-17T00:48:19.309Z,4.60
2022-11-17T00:49:19.280Z,4.80
2022-11-17T00:50:19.285Z,4.70
2022-11-17T00:51:19.257Z,4.70
2022-11-17T00:52:19.252Z,4.70
2022-11-17T00:53:19.255Z,5.40
2022-11-17T00:54:19.229Z,4.90
2022-11-17T00:55:19.253Z,5.20
2022-11-17T00:56:19.213Z,4.90
2022-11-17T00:57:19.195Z,5.20
2022-11-17T00:58:19.200Z,5.70
2022-11-17T00:59:19.186Z,5.10
2022-11-17T01:00:19.179Z,5.30
2022-11-17T01:01:19.215Z,5.00
2022-11-17T01:02:19.142Z,5.30
2022-11-17T01:03:19.148Z,4.90
2022-11-17T01:04:19.132Z,5.40
2022-11-17T01:05:19.104Z,5.20
2022-11-17T01:06:19.104Z,5.30
2022-11-17T01:07:19.169Z,4.80
2022-11-17T01:08:19.185Z,5.70
2022-11-17T01:09:19.185Z,5.10
2022-11-17T01:10:19.067Z,5.20
2022-11-17T01:11:19.053Z,5.40
2022-11-17T01:12:19.037Z,5.40
2022-11-17T01:13:19.022Z,5.60
2022-11-17T01:14:26.532Z,5.20
2022-11-17T01:15:18.995Z,5.50
2022-11-17T01:16:18.989Z,4.80
2022-11-17T01:17:18.973Z,6.20
2022-11-17T01:18:18.968Z,5.50
2022-11-17T01:19:18.967Z,4.90
2022-11-17T01:20:18.950Z,5.30
2022-11-17T01:21:18.934Z,5.80
2022-11-17T01:22:18.927Z,5.80
2022-11-17T01:23:18.908Z,5.20
2022-11-17T01:24:18.914Z,5.40
2022-11-17T01:25:19.003Z,5.40
2022-11-17T01:26:18.881Z,5.90
2022-11-17T01:27:18.866Z,5.60
2022-11-17T01:28:18.870Z,5.80
2022-11-17T01:29:18.841Z,5.40
2022-11-17T01:30:18.849Z,5.20
2022-11-17T01:31:18.820Z,5.60
2022-11-17T01:32:18.816Z,6.10
2022-11-17T01:33:18.812Z,5.30
2022-11-17T01:34:18.792Z,5.80
2022-11-17T01:35:18.779Z,6.00
2022-11-17T01:36:18.772Z,5.00
2022-11-17T01:37:18.765Z,6.00
2022-11-17T01:38:18.762Z,6.20
2022-11-17T01:39:18.748Z,5.70
2022-11-17T01:40:18.728Z,6.10
2022-11-17T01:41:18.827Z,5.70
2022-11-17T01:42:18.711Z,5.50
2022-11-17T01:43:18.692Z,5.90
2022-11-17T01:44:18.696Z,6.10
2022-11-17T01:45:18.672Z,5.70
2022-11-17T01:46:18.675Z,5.60
2022-11-17T01:47:18.657Z,5.40
2022-11-17T01:48:18.641Z,6.00
2022-11-17T01:49:18.637Z,5.80
2022-11-17T01:50:18.619Z,6.10
2022-11-17T01:51:18.603Z,6.10
2022-11-17T01:52:18.599Z,5.10
2022-11-17T01:53:18.593Z,6.30
2022-11-17T01:54:18.591Z,5.80
2022-11-17T01:55:18.560Z,6.20
2022-11-17T01:56:18.559Z,5.80
2022-11-17T01:57:18.639Z,6.50
2022-11-17T01:58:18.534Z,6.50
2022-11-17T01:59:18.519Z,6.30
2022-11-17T02:00:18.517Z,6.40
2022-11-17T02:01:18.574Z,6.50
2022-11-17T02:02:18.505Z,6.10
2022-11-17T02:03:18.480Z,6.60
2022-11-17T02:04:18.463Z,5.80
2022-11-17T02:05:18.460Z,6.60
2022-11-17T02:06:18.468Z,5.90
2022-11-17T02:07:18.472Z,6.20
2022-11-17T02:08:18.422Z,6.40
2022-11-17T02:09:18.418Z,6.40
2022-11-17T02:10:18.417Z,6.00
2022-11-17T02:11:18.384Z,6.50
2022-11-17T02:12:18.386Z,6.30
2022-11-17T02:13:18.481Z,6.40
2022-11-17T02:14:18.373Z,6.30
2022-11-17T02:15:18.343Z,6.90
2022-11-17T02:16:18.333Z,6.70
2022-11-17T02:17:18.327Z,6.60
2022-11-17T02:18:18.311Z,6.30
2022-11-17T02:19:18.307Z,6.60
2022-11-17T02:20:18.302Z,6.70
2022-11-17T02:21:18.283Z,6.10
2022-11-17T02:22:18.265Z,6.90
2022-11-17T02:23:18.265Z,6.40
2022-11-17T02:24:18.261Z,6.60
2022-11-17T02:25:21.701Z,6.10
2022-11-17T02:26:19.222Z,6.20
2022-11-17T02:27:18.206Z,6.70
2022-11-17T02:28:18.203Z,6.90
2022-11-17T02:29:18.303Z,6.40
2022-11-17T02:30:18.181Z,6.70
2022-11-17T02:31:18.190Z,6.80
2022-11-17T02:32:18.155Z,6.60
2022-11-17T02:33:18.143Z,6.80
2022-11-17T02:34:18.168Z,6.90
2022-11-17T02:35:18.119Z,6.80
2022-11-17T02:36:18.134Z,7.00
2022-11-17T02:37:18.096Z,6.50
2022-11-17T02:38:18.094Z,7.00
2022-11-17T02:39:18.073Z,6.50
2022-11-17T02:40:18.070Z,6.60
2022-11-17T02:41:18.065Z,7.10
2022-11-17T02:42:18.055Z,6.80
2022-11-17T02:43:18.031Z,7.10
2022-11-17T02:44:18.026Z,6.80
2022-11-17T02:45:18.046Z,6.80
2022-11-17T02:46:18.020Z,6.90
2022-11-17T02:47:17.989Z,6.50
2022-11-17T02:48:17.993Z,6.70
2022-11-17T02:49:17.965Z,6.90
2022-11-17T02:50:17.981Z,6.70
2022-11-17T02:51:17.975Z,6.40
2022-11-17T02:52:17.951Z,6.70
2022-11-17T02:53:17.923Z,7.20
2022-11-17T02:54:17.920Z,7.00
2022-11-17T02:55:17.912Z,7.20
2022-11-17T02:56:17.914Z,7.10
2022-11-17T02:57:17.903Z,6.80
2022-11-17T02:58:17.872Z,7.00
2022-11-17T02:59:17.856Z,6.60
2022-11-17T03:00:17.849Z,7.70
2022-11-17T03:01:17.967Z,6.80
2022-11-17T03:02:17.867Z,7.00
2022-11-17T03:03:17.812Z,6.80
2022-11-17T03:04:17.827Z,6.70
2022-11-17T03:05:17.799Z,7.40
2022-11-17T03:06:17.783Z,7.50
2022-11-17T03:07:17.851Z,7.60
2022-11-17T03:08:17.782Z,7.70
2022-11-17T03:09:17.747Z,7.10
2022-11-17T03:10:17.739Z,7.10
2022-11-17T03:11:17.745Z,7.70
2022-11-17T03:12:17.720Z,7.40
2022-11-17T03:13:17.716Z,7.40
2022-11-17T03:14:17.709Z,7.40
2022-11-17T03:15:25.192Z,7.30
2022-11-17T03:16:17.682Z,7.10
2022-11-17T03:17:17.781Z,7.30
2022-11-17T03:18:17.666Z,7.90
2022-11-17T03:19:17.648Z,7.00
2022-11-17T03:20:17.631Z,8.10
2022-11-17T03:21:17.615Z,7.50
2022-11-17T03:22:17.615Z,7.50
2022-11-17T03:23:17.607Z,7.70
2022-11-17T03:24:17.604Z,7.70
2022-11-17T03:25:17.578Z,7.10
2022-11-17T03:26:17.567Z,7.50
2022-11-17T03:27:17.566Z,7.10
2022-11-17T03:28:17.554Z,7.00
2022-11-17T03:29:17.532Z,7.70
2022-11-17T03:30:17.535Z,7.90
2022-11-17T03:31:17.521Z,7.50
2022-11-17T03:32:17.525Z,7.50
2022-11-17T03:33:17.524Z,7.80
2022-11-17T03:34:17.494Z,7.40
2022-11-17T03:35:17.464Z,7.00
2022-11-17T03:36:17.483Z,7.10
2022-11-17T03:37:17.452Z,7.60
2022-11-17T03:38:17.438Z,7.50
2022-11-17T03:39:17.431Z,7.70
2022-11-17T03:40:17.413Z,7.10
2022-11-17T03:41:17.400Z,7.60
2022-11-17T03:42:17.395Z,8.00
2022-11-17T03:43:17.409Z,7.70
2022-11-17T03:44:17.400Z,7.80
2022-11-17T03:45:17.364Z,8.10
2022-11-17T03:46:17.347Z,7.30
2022-11-17T03:47:17.364Z,7.50
2022-11-17T03:48:17.330Z,7.60
2022-11-17T03:49:17.337Z,8.00
2022-11-17T03:50:17.309Z,7.20
2022-11-17T03:51:17.309Z,7.20
2022-11-17T03:52:17.286Z,7.40
2022-11-17T03:53:17.302Z,7.60
2022-11-17T03:54:17.288Z,7.40
2022-11-17T03:55:17.252Z,7.20
2022-11-17T03:56:17.253Z,7.90
2022-11-17T03:57:17.240Z,7.50
2022-11-17T03:58:17.214Z,7.70
2022-11-17T03:59:17.217Z,7.50
2022-11-17T04:00:17.192Z,8.00
2022-11-17T04:01:17.289Z,8.50
2022-11-17T04:02:17.181Z,7.30
2022-11-17T04:03:17.204Z,7.80
2022-11-17T04:04:17.152Z,7.90
2022-11-17T04:05:17.262Z,8.00
2022-11-17T04:06:17.267Z,7.10
2022-11-17T04:07:17.237Z,8.30
2022-11-17T04:08:17.117Z,7.30
2022-11-17T04:09:22.922Z,8.00
2022-11-17T04:10:18.082Z,8.30
2022-11-17T04:11:17.083Z,7.50
2022-11-17T04:12:17.066Z,7.30
2022-11-17T04:13:17.096Z,8.10
2022-11-17T04:14:17.064Z,7.40
2022-11-17T04:15:17.053Z,7.60
2022-11-17T04:16:17.028Z,7.70
2022-11-17T04:17:17.015Z,7.40
2022-11-17T04:18:16.997Z,7.80
2022-11-17T04:19:16.991Z,7.70
2022-11-17T04:20:16.973Z,7.90
2022-11-17T04:21:17.094Z,7.30
2022-11-17T04:22:16.963Z,7.30
2022-11-17T04:23:16.966Z,6.80
2022-11-17T04:24:16.951Z,7.40
2022-11-17T04:25:16.933Z,7.30
2022-11-17T04:26:16.909Z,7.10
2022-11-17T04:27:16.933Z,7.50
2022-11-17T04:28:16.903Z,7.90
2022-11-17T04:29:16.882Z,6.60
2022-11-17T04:30:16.867Z,7.00
2022-11-17T04:31:16.858Z,7.20
2022-11-17T04:32:16.855Z,7.30
2022-11-17T04:33:16.853Z,7.80
2022-11-17T04:34:16.822Z,7.30
2022-11-17T04:35:16.839Z,7.30
2022-11-17T04:36:16.800Z,7.70
2022-11-17T04:37:16.919Z,7.30
2022-11-17T04:38:16.781Z,7.70
2022-11-17T04:39:16.795Z,7.60
2022-11-17T04:40:16.759Z,7.00
2022-11-17T04:41:16.752Z,7.20
2022-11-17T04:42:16.751Z,7.60
2022-11-17T04:43:16.729Z,7.20
2022-11-17T04:44:16.739Z,7.60
2022-11-17T04:45:16.716Z,7.70
2022-11-17T04:46:16.705Z,7.90
2022-11-17T04:47:16.692Z,7.80
2022-11-17T04:48:16.672Z,8.40
2022-11-17T04:49:16.677Z,7.70
2022-11-17T04:50:16.647Z,7.30
2022-11-17T04:51:16.664Z,7.70
2022-11-17T04:52:16.640Z,7.60
2022-11-17T04:53:16.646Z,6.80
2022-11-17T04:54:16.604Z,7.90
2022-11-17T04:55:16.599Z,7.30
2022-11-17T04:56:16.587Z,7.20
2022-11-17T04:57:16.590Z,8.00
2022-11-17T04:58:16.573Z,7.40
2022-11-17T04:59:16.585Z,7.30
2022-11-17T05:00:16.561Z,7.40
2022-11-17T05:01:16.541Z,7.70
2022-11-17T05:02:16.576Z,7.60
2022-11-17T05:03:16.527Z,7.60
2022-11-17T05:04:16.499Z,7.70
2022-11-17T05:05:16.506Z,7.50
2022-11-17T05:06:16.474Z,7.90
2022-11-17T05:07:16.528Z,7.20
2022-11-17T05:08:16.494Z,7.70
2022-11-17T05:09:16.574Z,7.90
2022-11-17T05:10:16.435Z,7.20
2022-11-17T05:11:16.488Z,7.50
2022-11-17T05:12:16.414Z,7.60
2022-11-17T05:13:16.407Z,7.60
2022-11-17T05:14:16.407Z,7.10
2022-11-17T05:15:16.383Z,7.20
2022-11-17T05:16:23.881Z,7.40
2022-11-17T05:17:16.387Z,8.00
2022-11-17T05:18:16.349Z,8.10
2022-11-17T05:19:16.339Z,7.30
2022-11-17T05:20:16.346Z,7.30
2022-11-17T05:21:16.317Z,7.50
2022-11-17T05:22:16.304Z,7.00
2022-11-17T05:23:16.297Z,7.60
2022-11-17T05:24:16.281Z,7.50
2022-11-17T05:25:16.391Z,7.20
2022-11-17T05:26:16.276Z,6.70
2022-11-17T05:27:16.263Z,6.60
2022-11-17T05:28:16.241Z,7.20
2022-11-17T05:29:16.243Z,7.00
2022-11-17T05:30:16.215Z,6.80
2022-11-17T05:31:16.209Z,7.20
2022-11-17T05:32:16.196Z,6.80
2022-11-17T05:33:16.195Z,7.30
2022-11-17T05:34:16.196Z,7.20
2022-11-17T05:35:16.188Z,6.20
2022-11-17T05:36:16.152Z,7.50
2022-11-17T05:37:16.153Z,6.80
2022-11-17T05:38:16.187Z,6.90
2022-11-17T05:39:16.160Z,7.10
2022-11-17T05:40:16.120Z,6.30
2022-11-17T05:41:16.225Z,6.50
2022-11-17T05:42:16.086Z,7.10
2022-11-17T05:43:16.097Z,6.80
2022-11-17T05:44:16.082Z,7.10
2022-11-17T05:45:16.063Z,6.40
2022-11-17T05:46:16.042Z,7.00
2022-11-17T05:47:16.068Z,6.40
2022-11-17T05:48:16.035Z,6.40
2022-11-17T05:49:16.031Z,6.10
2022-11-17T05:50:16.014Z,6.20
2022-11-17T05:51:15.993Z,6.40
2022-11-17T05:52:16.003Z,6.30
2022-11-17T05:53:15.987Z,6.80
2022-11-17T05:54:15.955Z,6.30
2022-11-17T05:55:15.968Z,6.80
2022-11-17T05:56:15.945Z,6.00
2022-11-17T05:57:16.067Z,6.30
2022-11-17T05:58:15.950Z,6.10
2022-11-17T05:59:15.933Z,6.30
2022-11-17T06:00:15.908Z,6.50
2022-11-17T06:01:15.899Z,6.40
2022-11-17T06:02:15.886Z,6.50
2022-11-17T06:03:15.877Z,5.60
2022-11-17T06:04:15.968Z,6.20
2022-11-17T06:05:20.251Z,6.40
2022-11-17T06:06:15.835Z,5.80
2022-11-17T06:07:15.904Z,6.30
2022-11-17T06:08:15.843Z,6.10
2022-11-17T06:09:15.810Z,5.80
2022-11-17T06:10:15.808Z,6.00
2022-11-17T06:11:15.776Z,5.90
2022-11-17T06:12:15.771Z,5.80
2022-11-17T06:13:15.899Z,5.30
2022-11-17T06:14:15.749Z,5.90
2022-11-17T06:15:15.746Z,5.90
2022-11-17T06:16:15.716Z,5.50
2022-11-17T06:17:21.564Z,6.00
2022-11-17T06:18:16.766Z,5.50
2022-11-17T06:19:15.716Z,6.00
2022-11-17T06:20:15.693Z,5.60
2022-11-17T06:21:15.675Z,5.40
2022-11-17T06:22:15.654Z,5.70
2022-11-17T06:23:15.647Z,5.50
2022-11-17T06:24:15.673Z,5.90
2022-11-17T06:25:15.626Z,5.50
2022-11-17T06:26:15.663Z,5.70
2022-11-17T06:27:15.615Z,5.60
2022-11-17T06:28:15.632Z,5.40
2022-11-17T06:29:15.695Z,5.50
2022-11-17T06:30:15.574Z,5.40
2022-11-17T06:31:15.581Z,5.00
2022-11-17T06:32:15.563Z,4.90
2022-11-17T06:33:15.561Z,5.10
2022-11-17T06:34:15.530Z,5.20
2022-11-17T06:35:15.528Z,4.90
2022-11-17T06:36:15.526Z,5.10
2022-11-17T06:37:15.493Z,4.90
2022-11-17T06:38:15.494Z,5.30
2022-11-17T06:39:15.552Z,4.80
2022-11-17T06:40:15.471Z,5.30
2022-11-17T06:41:15.497Z,5.10
2022-11-17T06:42:15.448Z,4.80
2022-11-17T06:43:15.447Z,4.90
2022-11-17T06:44:15.417Z,4.80
2022-11-17T06:45:15.529Z,5.30
2022-11-17T06:46:15.405Z,5.10
2022-11-17T06:47:15.500Z,4.90
2022-11-17T06:48:15.413Z,4.60
2022-11-17T06:49:15.406Z,4.50
2022-11-17T06:50:15.404Z,4.60
2022-11-17T06:51:15.343Z,4.80
2022-11-17T06:52:16.243Z,4.60
2022-11-17T06:53:15.356Z,4.60
2022-11-17T06:54:15.381Z,4.40
2022-11-17T06:55:15.308Z,4.20
2022-11-17T06:56:15.313Z,4.30
2022-11-17T06:57:15.284Z,3.70
2022-11-17T06:58:15.288Z,4.10
2022-11-17T06:59:15.276Z,4.20
2022-11-17T07:00:15.247Z,4.30
2022-11-17T07:01:15.445Z,4.20
2022-11-17T07:02:15.223Z,3.70
2022-11-17T07:03:15.220Z,3.60
2022-11-17T07:04:15.205Z,4.20
2022-11-17T07:05:16.311Z,4.00
2022-11-17T07:06:15.238Z,4.10
2022-11-17T07:07:15.225Z,3.40
2022-11-17T07:08:15.210Z,3.60
2022-11-17T07:09:16.196Z,3.70
2022-11-17T07:10:15.760Z,4.10
2022-11-17T07:11:15.755Z,3.50
2022-11-17T07:12:15.150Z,3.60
2022-11-17T07:13:15.132Z,3.50
2022-11-17T07:14:15.158Z,3.30
2022-11-17T07:15:15.174Z,3.30
2022-11-17T07:16:20.083Z,3.60
2022-11-17T07:18:25.181Z,2.70
2022-11-17T07:19:25.040Z,3.40
2022-11-17T07:20:25.078Z,3.30
2022-11-17T07:21:25.044Z,3.40
2022-11-17T07:22:25.020Z,3.40
2022-11-17T07:23:25.030Z,3.30
2022-11-17T07:24:25.977Z,3.20
2022-11-17T07:25:25.057Z,3.60
2022-11-17T07:26:24.975Z,3.30
2022-11-17T07:27:25.474Z,3.20
2022-11-17T07:28:24.959Z,3.70
2022-11-17T07:29:24.970Z,3.30
2022-11-17T07:30:25.483Z,3.60
2022-11-17T07:31:24.902Z,3.50
2022-11-17T07:32:24.885Z,3.30
2022-11-17T07:33:24.878Z,3.70
2022-11-17T07:34:24.878Z,3.80
2022-11-17T07:35:24.853Z,3.10
2022-11-17T07:36:24.853Z,3.50
2022-11-17T07:37:24.849Z,3.40
2022-11-17T07:38:24.817Z,3.30
2022-11-17T07:39:24.814Z,3.20
2022-11-17T07:40:24.815Z,3.30
2022-11-17T07:41:24.802Z,3.70
2022-11-17T07:42:25.527Z,3.10
2022-11-17T07:43:24.768Z,3.40
2022-11-17T07:44:24.759Z,3.00
2022-11-17T07:45:27.402Z,3.40
2022-11-17T07:46:25.745Z,3.20
2022-11-17T07:47:24.727Z,3.50
2022-11-17T07:48:24.708Z,3.40
2022-11-17T07:49:24.794Z,3.40
2022-11-17T07:50:24.767Z,3.10
2022-11-17T07:51:24.759Z,3.10
2022-11-17T07:52:24.709Z,3.20
2022-11-17T07:53:24.658Z,2.70
2022-11-17T07:54:24.650Z,3.50
2022-11-17T07:55:24.658Z,3.00
2022-11-17T07:56:24.627Z,3.00
2022-11-17T07:57:24.613Z,2.90
2022-11-17T07:58:24.600Z,2.90
2022-11-17T07:59:24.573Z,3.00
2022-11-17T08:00:24.599Z,2.90
2022-11-17T08:01:24.638Z,2.60
2022-11-17T08:02:24.567Z,2.60
2022-11-17T08:03:24.615Z,2.80
2022-11-17T08:04:24.546Z,2.70
2022-11-17T08:05:24.521Z,3.00
2022-11-17T08:06:24.681Z,2.70
2022-11-17T08:07:24.608Z,2.80
2022-11-17T08:08:24.493Z,2.50
2022-11-17T08:09:24.479Z,2.90
2022-11-17T08:10:24.571Z,2.80
2022-11-17T08:11:24.456Z,2.80
2022-11-17T08:12:24.591Z,2.50
2022-11-17T08:13:24.434Z,2.70
2022-11-17T08:14:24.441Z,2.70
2022-11-17T08:15:25.078Z,2.60
2022-11-17T08:16:24.420Z,2.90
2022-11-17T08:17:24.399Z,2.60
2022-11-17T08:18:24.405Z,2.60
2022-11-17T08:19:24.397Z,2.70
2022-11-17T08:20:24.443Z,2.80
2022-11-17T08:21:24.398Z,2.50
2022-11-17T08:22:24.365Z,2.50
2022-11-17T08:23:24.313Z,2.90
2022-11-17T08:24:24.458Z,2.80
2022-11-17T08:25:24.294Z,2.70
2022-11-17T08:26:24.390Z,2.50
2022-11-17T08:27:24.270Z,2.80
2022-11-17T08:28:24.298Z,2.80
2022-11-17T08:29:24.325Z,2.70
2022-11-17T08:30:24.285Z,2.60
2022-11-17T08:31:24.238Z,2.60
2022-11-17T08:32:24.263Z,2.70
2022-11-17T08:33:24.532Z,3.10
2022-11-17T08:34:24.218Z,2.90
2022-11-17T08:35:24.540Z,3.10
2022-11-17T08:36:27.725Z,3.20
2022-11-17T08:37:24.232Z,3.10
2022-11-17T08:38:25.147Z,2.80
2022-11-17T08:39:24.621Z,2.50
2022-11-17T08:40:24.149Z,2.90
2022-11-17T08:41:24.156Z,2.80
2022-11-17T08:42:24.118Z,3.10
2022-11-17T08:43:24.540Z,2.90
2022-11-17T08:44:24.514Z,3.30
2022-11-17T08:45:24.208Z,3.00
2022-11-17T08:46:24.551Z,2.90
2022-11-17T08:47:24.072Z,3.10
2022-11-17T08:48:24.054Z,3.10
2022-11-17T08:49:24.028Z,2.90
2022-11-17T08:50:24.029Z,2.90
2022-11-17T08:51:24.026Z,3.30
2022-11-17T08:52:24.098Z,2.50
2022-11-17T08:53:23.990Z,2.60
2022-11-17T08:54:24.157Z,3.10
2022-11-17T08:55:24.040Z,2.90
2022-11-17T08:56:23.997Z,3.00
2022-11-17T08:57:24.032Z,2.90
2022-11-17T08:58:24.074Z,3.10
2022-11-17T08:59:25.949Z,3.10
2022-11-17T09:00:24.027Z,3.20
2022-11-17T09:01:24.523Z,2.80
2022-11-17T09:02:24.637Z,3.10
2022-11-17T09:03:26.500Z,2.80
2022-11-17T09:04:24.509Z,3.20
2022-11-17T09:05:24.031Z,3.10
2022-11-17T09:06:23.913Z,2.70
2022-11-17T09:07:24.606Z,2.80
2022-11-17T09:08:44.427Z,3.00
2022-11-17T09:09:25.581Z,2.80
2022-11-17T09:10:23.941Z,3.20
2022-11-17T09:11:23.873Z,3.00
2022-11-17T09:12:24.487Z,2.90
2022-11-17T09:13:24.589Z,3.30
2022-11-17T09:14:24.028Z,3.00
2022-11-17T22:44:56.725Z,3.60
2022-11-17T22:45:56.694Z,4.60
2022-11-17T22:46:56.668Z,5.50
2022-11-17T22:47:56.659Z,5.50
2022-11-17T22:48:56.669Z,5.60
2022-11-17T22:49:56.648Z,6.10
2022-11-17T22:50:56.629Z,5.30
2022-11-17T22:51:56.616Z,5.30
2022-11-17T22:52:56.609Z,5.60
2022-11-17T22:53:56.618Z,5.70
2022-11-17T22:54:56.580Z,5.50
2022-11-17T22:55:56.575Z,5.70
2022-11-17T22:56:56.557Z,5.60
2022-11-17T22:57:56.549Z,5.50
2022-11-17T22:58:59.699Z,5.50
2022-11-17T22:59:56.543Z,5.60
2022-11-17T23:00:56.546Z,5.50
2022-11-17T23:01:56.522Z,5.60
2022-11-17T23:02:56.556Z,5.90
2022-11-17T23:03:56.494Z,6.00
2022-11-17T23:04:56.493Z,6.00
2022-11-17T23:05:56.500Z,6.20
2022-11-17T23:06:56.509Z,6.00
2022-11-17T23:07:56.457Z,6.10
2022-11-17T23:08:56.424Z,5.40
2022-11-17T23:09:56.415Z,5.80
2022-11-17T23:11:21.844Z,5.50
2022-11-17T23:11:57.402Z,5.80
2022-11-17T23:12:56.380Z,5.60
2022-11-17T23:13:56.383Z,5.80
2022-11-17T23:14:56.378Z,5.20
2022-11-17T23:15:56.382Z,6.00
2022-11-17T23:16:56.374Z,5.40
2022-11-17T23:17:56.335Z,5.40
2022-11-17T23:18:56.317Z,6.00
2022-11-17T23:19:56.326Z,5.60
2022-11-17T23:20:56.298Z,5.70
2022-11-17T23:21:56.296Z,5.60
2022-11-17T23:22:56.283Z,5.70
2022-11-17T23:23:56.262Z,5.90
2022-11-17T23:24:56.261Z,5.60
2022-11-17T23:25:56.255Z,5.90
2022-11-17T23:26:56.232Z,5.70
2022-11-17T23:27:56.224Z,5.80
2022-11-17T23:28:56.222Z,5.70
2022-11-17T23:29:56.231Z,5.40
2022-11-17T23:30:56.186Z,5.50
2022-11-17T23:31:56.178Z,6.00
2022-11-17T23:32:56.197Z,6.00
2022-11-17T23:33:56.156Z,6.00
2022-11-17T23:34:56.143Z,6.50
2022-11-17T23:35:56.151Z,5.90
2022-11-17T23:37:00.846Z,5.90
2022-11-17T23:37:57.110Z,6.40
2022-11-17T23:38:56.097Z,6.60
2022-11-17T23:39:56.100Z,6.00
2022-11-17T23:40:56.079Z,6.10
2022-11-17T23:41:56.083Z,6.40
2022-11-17T23:42:56.055Z,6.50
2022-11-17T23:43:56.062Z,6.60
2022-11-17T23:44:56.034Z,5.90
2022-11-17T23:45:56.030Z,6.60
2022-11-17T23:46:56.017Z,6.40
2022-11-17T23:47:56.006Z,6.50
2022-11-17T23:48:56.020Z,6.50
2022-11-17T23:49:55.998Z,6.40
2022-11-17T23:50:55.967Z,6.70
2022-11-17T23:51:55.969Z,6.90
2022-11-17T23:52:55.961Z,7.00
2022-11-17T23:53:55.953Z,7.30
2022-11-17T23:54:55.949Z,7.60
2022-11-17T23:55:55.917Z,7.90
2022-11-17T23:56:55.923Z,8.00
2022-11-17T23:57:55.914Z,8.20
2022-11-17T23:58:55.881Z,7.90
2022-11-17T23:59:55.874Z,7.90
